Time;durP1;ratioP1;P1;durP2;ratioP2;P2;SDS_P1;SDS_P2;PMS_P1;PMS_P2;Temp;Humidity;BMP_temperature;BMP_pressure;BME280_temperature;BME280_humidity;BME280_pressure;Samples;Min_cycle;Max_cycle;Signal;HPM_P1;HPM_P2
2021/01/08 00:01:41;;;;;;;30.73;15.07;;;;;;;2.43;100.00;100303.78;4994845;28;20224;-73
2021/01/08 00:04:07;;;;;;;31.57;15.63;;;;;;;2.44;100.00;100300.88;4995017;28;20246;-74
2021/01/08 00:06:35;;;;;;;37.03;15.53;;;;;;;2.38;100.00;100300.97;5010270;28;20224;-74
2021/01/08 00:09:03;;;;;;;27.33;14.60;;;;;;;2.44;100.00;100295.53;5011516;28;20236;-74
2021/01/08 00:11:37;;;;;;;27.10;15.23;;;;;;;2.36;100.00;100297.69;5010537;28;20249;-73
2021/01/08 00:14:03;;;;;;;34.63;17.07;;;;;;;2.49;100.00;100297.50;4997389;28;20254;-73
2021/01/08 00:16:33;;;;;;;32.30;15.33;;;;;;;2.37;100.00;100300.16;4993941;28;20869;-73
2021/01/08 00:18:58;;;;;;;31.23;15.43;;;;;;;2.43;100.00;100303.78;4979158;28;20185;-73
2021/01/08 00:21:45;;;;;;;28.30;14.90;;;;;;;2.29;100.00;100297.81;5010044;28;20232;-73
2021/01/08 00:24:18;;;;;;;24.10;12.83;;;;;;;2.40;100.00;100298.88;5011709;28;20195;-73
2021/01/08 00:26:44;;;;;;;27.57;14.00;;;;;;;2.34;100.00;100299.78;5011608;28;20659;-74
2021/01/08 00:29:10;;;;;;;28.80;15.07;;;;;;;2.44;100.00;100300.88;5011153;28;20263;-73
2021/01/08 00:31:49;;;;;;;23.93;14.83;;;;;;;2.20;100.00;100302.88;5010504;28;20221;-73
2021/01/08 00:34:20;;;;;;;28.70;14.73;;;;;;;2.34;100.00;100299.78;4994837;28;20187;-73
2021/01/08 00:36:51;;;;;;;27.40;15.53;;;;;;;2.35;100.00;100301.44;5026998;28;20715;-73
2021/01/08 00:39:20;;;;;;;24.90;15.00;;;;;;;2.48;100.00;100298.56;4994567;28;20181;-73
2021/01/08 00:41:47;;;;;;;22.40;13.37;;;;;;;2.26;100.00;100292.09;5010643;28;20262;-73
2021/01/08 00:44:13;;;;;;;24.63;13.33;;;;;;;2.46;100.00;100297.97;5026549;28;20231;-73
2021/01/08 00:46:41;;;;;;;30.60;15.33;;;;;;;2.39;100.00;100298.06;4977597;28;20221;-73
2021/01/08 00:49:09;;;;;;;22.97;13.50;;;;;;;2.54;100.00;100294.97;4978918;28;20185;-73
2021/01/08 00:51:36;;;;;;;21.57;12.93;;;;;;;2.37;100.00;100302.03;4978435;28;20694;-73
2021/01/08 00:54:02;;;;;;;23.40;12.87;;;;;;;2.36;100.00;100303.06;4993996;28;20196;-73
2021/01/08 00:56:30;;;;;;;21.70;12.43;;;;;;;2.36;100.00;100298.53;4960587;28;20225;-73
2021/01/08 00:59:03;;;;;;;20.90;11.97;;;;;;;2.46;100.00;100295.31;4979926;28;20195;-73
2021/01/08 01:01:32;;;;;;;21.67;12.50;;;;;;;2.42;100.00;100302.97;4977344;28;20224;-73
2021/01/08 01:03:57;;;;;;;21.60;11.53;;;;;;;2.48;100.00;100301.25;4994406;28;20654;-73
2021/01/08 01:06:30;;;;;;;20.70;12.10;;;;;;;2.33;100.00;100311.56;4976905;28;20232;-73
2021/01/08 01:08:55;;;;;;;20.40;11.30;;;;;;;2.27;100.00;100301.75;5027165;28;20185;-72
2021/01/08 01:11:24;;;;;;;20.00;11.47;;;;;;;2.46;100.00;100300.66;5009764;28;20788;-73
2021/01/08 01:13:50;;;;;;;21.50;11.63;;;;;;;2.26;100.00;100305.47;4978478;28;20205;-73
2021/01/08 01:16:16;;;;;;;21.43;11.93;;;;;;;2.37;100.00;100305.50;4992975;28;20225;-73
2021/01/08 01:18:45;;;;;;;18.33;11.53;;;;;;;2.41;100.00;100305.88;4977679;28;20189;-73
2021/01/08 01:21:11;;;;;;;16.30;10.47;;;;;;;2.38;100.00;100301.81;4961707;28;20225;-73
2021/01/08 01:23:37;;;;;;;18.57;11.40;;;;;;;2.39;100.00;100305.28;4993769;28;20220;-73
2021/01/08 01:26:03;;;;;;;17.13;10.40;;;;;;;2.16;100.00;100307.91;5009235;28;20231;-73
2021/01/08 01:28:34;;;;;;;16.53;10.10;;;;;;;2.25;100.00;100306.50;4994693;28;20561;-73
2021/01/08 01:31:00;;;;;;;18.67;10.80;;;;;;;2.30;100.00;100303.97;4994066;28;20248;-73
2021/01/08 01:33:25;;;;;;;15.60;10.53;;;;;;;2.37;100.00;100304.72;5026811;28;20197;-73
2021/01/08 01:35:54;;;;;;;18.37;11.07;;;;;;;2.46;100.00;100300.66;4992141;28;20235;-73
2021/01/08 01:38:20;;;;;;;17.27;11.07;;;;;;;2.31;100.00;100308.31;5010617;28;20356;-73
2021/01/08 01:40:46;;;;;;;17.27;10.63;;;;;;;2.06;100.00;100323.69;5009284;28;20307;-72
2021/01/08 01:43:11;;;;;;;16.50;10.07;;;;;;;2.16;100.00;100313.25;5010229;28;20304;-73
2021/01/08 01:45:37;;;;;;;17.57;10.67;;;;;;;2.05;100.00;100319.38;5009010;28;20629;-73
2021/01/08 01:48:03;;;;;;;16.30;10.07;;;;;;;2.04;100.00;100320.41;4993811;28;20177;-73
2021/01/08 01:50:28;;;;;;;16.97;10.50;;;;;;;2.23;100.00;100322.00;4993326;28;20248;-73
2021/01/08 01:52:54;;;;;;;16.17;9.47;;;;;;;2.27;100.00;100317.81;4993845;28;20694;-72
2021/01/08 01:55:20;;;;;;;15.07;9.93;;;;;;;2.42;100.00;100324.41;5008795;28;20651;-73
2021/01/08 01:57:48;;;;;;;15.43;9.23;;;;;;;2.14;100.00;100328.72;5009712;28;20185;-73
2021/01/08 02:00:14;;;;;;;18.00;10.03;;;;;;;2.27;100.00;100320.50;5009648;28;20559;-73
2021/01/08 02:02:47;;;;;;;16.00;10.57;;;;;;;2.36;100.00;100327.16;4993202;28;20205;-73
2021/01/08 02:05:17;;;;;;;15.83;9.93;;;;;;;2.39;100.00;100324.06;4993415;28;20276;-73
2021/01/08 02:07:55;;;;;;;15.20;9.93;;;;;;;2.31;100.00;100327.06;4998014;28;20593;-73
2021/01/08 02:10:23;;;;;;;15.13;10.07;;;;;;;2.25;100.00;100329.81;5013302;28;20184;-73
2021/01/08 02:12:51;;;;;;;12.60;8.63;;;;;;;2.28;100.00;100324.81;5013909;28;20231;-73
2021/01/08 02:15:19;;;;;;;13.17;9.53;;;;;;;2.37;100.00;100326.13;4996677;28;20215;-73
2021/01/08 02:17:47;;;;;;;13.33;8.93;;;;;;;2.38;100.00;100327.75;5013750;28;20268;-73
2021/01/08 02:20:17;;;;;;;13.87;9.00;;;;;;;2.45;100.00;100323.13;4979983;28;20189;-73
2021/01/08 02:23:08;;;;;;;12.50;8.70;;;;;;;2.33;100.00;100327.66;5013735;28;20217;-73
2021/01/08 02:25:34;;;;;;;14.73;9.17;;;;;;;2.21;100.00;100332.13;4992647;28;20226;-73
2021/01/08 02:28:08;;;;;;;12.37;8.37;;;;;;;2.37;100.00;100334.19;4994022;28;20193;-73
2021/01/08 02:30:35;;;;;;;12.07;8.47;;;;;;;2.32;100.00;100328.69;4998557;28;20250;-73
2021/01/08 02:33:01;;;;;;;11.70;7.93;;;;;;;2.29;100.00;100339.88;5013642;28;20185;-72
2021/01/08 02:35:28;;;;;;;12.53;7.93;;;;;;;2.26;100.00;100334.94;4996031;28;20220;-73
2021/01/08 02:37:55;;;;;;;10.67;8.17;;;;;;;1.99;100.00;100327.47;4997001;28;20203;-72
2021/01/08 02:40:21;;;;;;;10.93;7.80;;;;;;;2.07;100.00;100335.19;4996555;28;20191;-73
2021/01/08 02:42:46;;;;;;;12.53;8.43;;;;;;;2.19;100.00;100328.84;5012920;28;20220;-73
2021/01/08 02:45:12;;;;;;;10.17;7.23;;;;;;;2.20;100.00;100335.88;4995711;28;20173;-72
2021/01/08 02:47:40;;;;;;;10.47;7.23;;;;;;;2.20;100.00;100325.16;5013180;28;20189;-73
2021/01/08 02:50:10;;;;;;;10.97;7.67;;;;;;;2.24;100.00;100326.31;4980550;28;20193;-72
2021/01/08 02:52:37;;;;;;;10.73;7.70;;;;;;;2.44;100.00;100337.59;4980743;28;20203;-72
2021/01/08 02:55:06;;;;;;;9.90;7.27;;;;;;;2.24;100.00;100331.69;5012501;28;20184;-73
2021/01/08 02:57:34;;;;;;;10.30;7.30;;;;;;;2.32;100.00;100334.03;5013388;28;20601;-73
2021/01/08 02:59:59;;;;;;;10.30;6.90;;;;;;;2.28;100.00;100316.78;5013310;28;20180;-72
2021/01/08 03:02:27;;;;;;;9.63;7.13;;;;;;;2.31;100.00;100329.75;5012117;28;20654;-73
2021/01/08 03:04:55;;;;;;;9.90;7.37;;;;;;;2.34;100.00;100337.31;4996568;28;20251;-73
2021/01/08 03:07:21;;;;;;;10.37;7.33;;;;;;;2.22;100.00;100339.13;4996531;28;20598;-73
2021/01/08 03:09:47;;;;;;;9.40;6.60;;;;;;;2.20;100.00;100335.88;5012167;28;20181;-72
2021/01/08 03:12:15;;;;;;;10.27;7.33;;;;;;;2.16;100.00;100336.53;4992269;28;20782;-72
2021/01/08 03:14:45;;;;;;;10.53;7.23;;;;;;;2.16;100.00;100334.69;4976854;28;20182;-72
2021/01/08 03:17:15;;;;;;;10.77;7.97;;;;;;;2.21;100.00;100336.66;4991759;28;20229;-72
2021/01/08 03:19:41;;;;;;;10.30;7.07;;;;;;;2.17;100.00;100338.97;4993487;28;20185;-73
2021/01/08 03:22:09;;;;;;;10.23;7.97;;;;;;;2.02;100.00;100330.53;4991952;28;20618;-73
2021/01/08 03:24:34;;;;;;;9.03;6.30;;;;;;;2.20;100.00;100330.50;4976091;28;20166;-73
2021/01/08 03:27:00;;;;;;;9.27;6.90;;;;;;;2.29;100.00;100326.47;4991376;28;20218;-73
2021/01/08 03:29:31;;;;;;;10.13;6.90;;;;;;;2.24;100.00;100329.00;4976917;28;20209;-73
2021/01/08 03:31:57;;;;;;;8.63;6.70;;;;;;;2.19;100.00;100322.69;4991992;28;20230;-73
2021/01/08 03:34:27;;;;;;;8.97;6.40;;;;;;;2.23;100.00;100334.59;4992097;28;20177;-73
2021/01/08 03:36:55;;;;;;;8.90;6.43;;;;;;;2.21;100.00;100326.75;4976372;28;20237;-73
2021/01/08 03:39:24;;;;;;;8.23;6.47;;;;;;;2.10;100.00;100330.22;4992620;28;20667;-73
2021/01/08 03:41:50;;;;;;;8.57;6.30;;;;;;;1.98;100.00;100329.34;4975844;28;20230;-73
2021/01/08 03:44:15;;;;;;;10.97;6.37;;;;;;;2.02;100.00;100338.56;4991543;28;20674;-73
2021/01/08 03:46:41;;;;;;;12.17;6.50;;;;;;;2.03;100.00;100334.84;4975634;28;20232;-72
2021/01/08 03:49:07;;;;;;;8.90;6.23;;;;;;;2.09;100.00;100336.63;4992108;28;20186;-73
2021/01/08 03:51:35;;;;;;;12.77;7.20;;;;;;;2.09;100.00;100336.63;4991778;28;20229;-73
2021/01/08 03:54:01;;;;;;;7.60;6.10;;;;;;;2.23;100.00;100339.94;4992462;28;20651;-73
2021/01/08 03:56:29;;;;;;;7.53;5.67;;;;;;;2.07;100.00;100341.41;4974784;28;20751;-72
2021/01/08 03:58:55;;;;;;;7.70;6.00;;;;;;;2.16;100.00;100340.03;5008556;28;20170;-73
2021/01/08 04:01:26;;;;;;;6.73;5.57;;;;;;;2.21;100.00;100342.84;4991090;28;20626;-73
2021/01/08 04:03:52;;;;;;;7.00;5.63;;;;;;;2.22;100.00;100343.69;4975579;28;20848;-73
2021/01/08 04:06:20;;;;;;;7.27;5.60;;;;;;;2.14;100.00;100346.66;5006989;28;20236;-72
2021/01/08 04:08:46;;;;;;;7.60;5.67;;;;;;;2.25;100.00;100343.22;4991985;28;20644;-73
2021/01/08 04:11:13;;;;;;;6.73;5.27;;;;;;;2.26;100.00;100340.31;4958925;28;20233;-73
2021/01/08 04:13:39;;;;;;;7.43;5.30;;;;;;;2.20;100.00;100343.91;4974059;28;20225;-72
2021/01/08 04:16:05;;;;;;;8.80;5.83;;;;;;;2.14;100.00;100349.31;4989875;28;20225;-72
2021/01/08 04:18:30;;;;;;;7.47;5.73;;;;;;;2.05;100.00;100348.84;4992546;28;20204;-72
2021/01/08 04:20:56;;;;;;;8.30;5.80;;;;;;;2.11;100.00;100349.78;4990825;28;20240;-73
2021/01/08 04:23:24;;;;;;;6.53;5.37;;;;;;;2.17;100.00;100351.56;4991059;28;20217;-72
2021/01/08 04:25:50;;;;;;;5.83;4.80;;;;;;;2.25;100.00;100344.00;4989282;28;20272;-72
2021/01/08 04:28:15;;;;;;;6.10;5.20;;;;;;;2.05;100.00;100350.66;4991324;28;20667;-72
2021/01/08 04:30:41;;;;;;;7.70;5.27;;;;;;;2.12;100.00;100344.19;4974561;28;20221;-72
2021/01/08 04:33:06;;;;;;;7.33;5.37;;;;;;;1.94;100.00;100346.06;4991569;28;20534;-72
2021/01/08 04:35:34;;;;;;;7.90;5.77;;;;;;;2.24;100.00;100341.59;4976449;28;20583;-73
2021/01/08 04:38:00;;;;;;;6.87;5.30;;;;;;;2.30;100.00;100346.84;5000544;28;20189;-73
2021/01/08 04:40:26;;;;;;;7.27;5.17;;;;;;;2.08;100.00;100345.69;5015463;28;20221;-73
2021/01/08 04:42:54;;;;;;;6.53;5.20;;;;;;;2.04;100.00;100349.88;4980409;28;20213;-73
2021/01/08 04:45:19;;;;;;;6.07;4.60;;;;;;;1.91;100.00;100352.69;4974393;28;20193;-72
2021/01/08 04:47:47;;;;;;;7.37;4.97;;;;;;;2.03;100.00;100356.28;4991353;28;20189;-73
2021/01/08 04:50:18;;;;;;;6.57;4.60;;;;;;;2.09;100.00;100351.88;4974581;28;20200;-73
2021/01/08 04:52:46;;;;;;;7.97;4.97;;;;;;;2.12;100.00;100354.91;4971972;28;20213;-72
2021/01/08 04:55:14;;;;;;;8.17;5.00;;;;;;;2.16;100.00;100358.78;4989508;28;20568;-73
2021/01/08 04:57:40;;;;;;;9.10;5.23;;;;;;;2.12;100.00;100356.78;4974477;28;20706;-74
2021/01/08 05:00:06;;;;;;;5.67;4.70;;;;;;;2.33;100.00;100354.44;4974374;28;20197;-72
2021/01/08 05:02:32;;;;;;;9.70;5.17;;;;;;;2.23;100.00;100361.38;4973076;28;20783;-73
2021/01/08 05:04:58;;;;;;;5.90;4.60;;;;;;;2.24;100.00;100361.16;4973221;28;20189;-72
2021/01/08 05:07:27;;;;;;;5.67;4.67;;;;;;;2.24;100.00;100371.06;4973476;28;20275;-72
2021/01/08 05:09:53;;;;;;;6.40;4.57;;;;;;;2.05;100.00;100367.59;4973833;28;20605;-72
2021/01/08 05:12:19;;;;;;;6.63;5.00;;;;;;;2.19;100.00;100369.03;4989888;28;20274;-72
2021/01/08 05:14:44;;;;;;;6.60;4.63;;;;;;;2.15;100.00;100370.53;5005960;28;20671;-72
2021/01/08 05:17:10;;;;;;;6.20;4.47;;;;;;;1.93;100.00;100372.03;4989746;28;20614;-72
2021/01/08 05:19:37;;;;;;;5.50;4.47;;;;;;;2.04;100.00;100375.84;4974155;28;20182;-72
2021/01/08 05:22:03;;;;;;;6.90;5.10;;;;;;;2.13;100.00;100375.28;4989979;28;20225;-72
2021/01/08 05:24:29;;;;;;;6.60;5.00;;;;;;;2.08;100.00;100385.03;4974515;28;20220;-72
2021/01/08 05:26:55;;;;;;;6.63;4.80;;;;;;;2.08;100.00;100377.00;4990301;28;20321;-72
2021/01/08 05:29:22;;;;;;;5.13;4.47;;;;;;;1.94;100.00;100370.16;4991014;28;20239;-72
2021/01/08 05:31:51;;;;;;;6.73;5.23;;;;;;;1.96;100.00;100382.31;4989900;28;20304;-72
2021/01/08 05:34:26;;;;;;;7.40;5.27;;;;;;;1.85;100.00;100384.06;4972880;28;20651;-72
2021/01/08 05:36:52;;;;;;;7.37;4.90;;;;;;;1.86;100.00;100388.41;4973915;28;20274;-72
2021/01/08 05:39:18;;;;;;;6.73;5.20;;;;;;;1.89;100.00;100388.78;4990794;28;20174;-71
2021/01/08 05:41:44;;;;;;;7.87;5.20;;;;;;;1.87;100.00;100392.69;4976150;28;20225;-71
2021/01/08 05:44:11;;;;;;;8.10;5.53;;;;;;;1.93;100.00;100395.31;4977885;28;20190;-72
2021/01/08 05:46:37;;;;;;;6.70;4.83;;;;;;;1.87;100.00;100398.06;4993953;28;20596;-72
2021/01/08 05:49:06;;;;;;;5.93;5.10;;;;;;;2.03;100.00;100387.56;4994797;28;20185;-72
2021/01/08 05:51:35;;;;;;;6.67;5.00;;;;;;;2.04;100.00;100395.38;4995321;28;20233;-72
2021/01/08 05:54:01;;;;;;;7.67;5.27;;;;;;;1.95;100.00;100396.72;4977494;28;20189;-72
2021/01/08 05:56:28;;;;;;;7.20;4.93;;;;;;;2.12;100.00;100400.44;4977280;28;20228;-72
2021/01/08 05:58:54;;;;;;;6.87;5.13;;;;;;;2.19;100.00;100395.81;4962044;28;20216;-71
2021/01/08 06:01:20;;;;;;;7.20;5.37;;;;;;;2.13;100.00;100402.06;4992434;28;20614;-71
2021/01/08 06:03:46;;;;;;;7.10;5.10;;;;;;;2.15;100.00;100402.66;4994244;28;20610;-71
2021/01/08 06:06:12;;;;;;;8.47;5.60;;;;;;;2.16;100.00;100396.28;4974758;28;20635;-72
2021/01/08 06:08:53;;;;;;;8.03;5.70;;;;;;;2.07;100.00;100400.31;4973557;28;20719;-72
2021/01/08 06:11:29;;;;;;;9.03;5.80;;;;;;;2.04;100.00;100416.81;4986479;28;20279;-72
2021/01/08 06:13:56;;;;;;;7.67;5.20;;;;;;;2.08;100.00;100409.97;4993692;28;20257;-73
2021/01/08 06:16:24;;;;;;;8.10;5.60;;;;;;;2.12;100.00;100413.81;4992792;28;20557;-72
2021/01/08 06:18:50;;;;;;;7.97;5.53;;;;;;;2.00;100.00;100420.97;4978784;28;20651;-73
2021/01/08 06:21:17;;;;;;;8.40;5.67;;;;;;;1.94;100.00;100424.56;4992961;28;20225;-71
2021/01/08 06:23:46;;;;;;;8.60;5.97;;;;;;;2.08;100.00;100427.88;4974686;28;20244;-75
2021/01/08 06:26:15;;;;;;;8.17;5.47;;;;;;;2.02;100.00;100424.25;5002788;28;20271;-75
2021/01/08 06:28:44;;;;;;;8.90;5.93;;;;;;;2.11;100.00;100424.78;5010870;28;20192;-76
2021/01/08 06:31:21;;;;;;;9.67;6.40;;;;;;;2.20;100.00;100432.28;4994530;28;20747;-73
2021/01/08 06:34:01;;;;;;;8.73;6.23;;;;;;;2.00;100.00;100426.34;4998541;28;20181;-75
2021/01/08 06:36:28;;;;;;;10.77;5.93;;;;;;;2.05;100.00;100434.53;5022587;28;20212;-72
2021/01/08 06:38:57;;;;;;;11.13;6.90;;;;;;;2.01;100.00;100437.84;5006817;28;20176;-72
2021/01/08 06:41:26;;;;;;;23.00;14.20;;;;;;;1.81;100.00;100447.13;5016851;28;20219;-71
2021/01/08 06:43:52;;;;;;;10.63;6.40;;;;;;;1.89;100.00;100444.16;5022369;28;20796;-72
2021/01/08 06:46:28;;;;;;;10.87;7.07;;;;;;;1.97;100.00;100442.81;5023382;28;20698;-72
2021/01/08 06:48:58;;;;;;;11.63;7.57;;;;;;;2.04;100.00;100448.94;5015262;28;20263;-72
2021/01/08 06:51:26;;;;;;;12.33;7.40;;;;;;;2.09;100.00;100445.59;4983000;28;20299;-72
2021/01/08 06:53:54;;;;;;;10.93;6.87;;;;;;;2.01;100.00;100454.72;4983572;28;20372;-72
2021/01/08 06:56:29;;;;;;;10.83;6.73;;;;;;;1.91;100.00;100453.63;4974195;28;20358;-72
2021/01/08 06:58:55;;;;;;;14.73;8.93;;;;;;;2.07;100.00;100467.25;4974229;28;20217;-72
2021/01/08 07:01:42;;;;;;;12.80;7.83;;;;;;;2.15;100.00;100466.13;4989097;28;20222;-72
2021/01/08 07:04:10;;;;;;;14.20;7.50;;;;;;;2.20;100.00;100464.44;4973897;28;20210;-72
2021/01/08 07:06:41;;;;;;;13.70;8.07;;;;;;;2.27;100.00;100465.16;4989462;28;20215;-72
2021/01/08 07:09:11;;;;;;;13.33;8.13;;;;;;;2.27;100.00;100467.00;4990406;28;20190;-72
2021/01/08 07:11:37;;;;;;;12.83;8.40;;;;;;;2.23;100.00;100474.69;4972971;28;20222;-72
2021/01/08 07:14:13;;;;;;;13.20;8.40;;;;;;;2.26;100.00;100471.56;4989955;28;20674;-72
2021/01/08 07:16:45;;;;;;;14.37;8.80;;;;;;;2.26;100.00;100476.91;4972974;28;20236;-72
2021/01/08 07:19:13;;;;;;;15.10;8.27;;;;;;;2.23;100.00;100477.34;4973678;28;20186;-72
2021/01/08 07:21:52;;;;;;;12.60;8.03;;;;;;;1.99;100.00;100491.63;4972073;28;20276;-71
2021/01/08 07:24:38;;;;;;;14.90;9.10;;;;;;;2.00;100.00;100493.28;4989330;28;20190;-71
2021/01/08 07:27:17;;;;;;;16.03;9.53;;;;;;;2.14;100.00;100499.31;4988568;28;20226;-72
2021/01/08 07:29:52;;;;;;;16.43;9.60;;;;;;;2.04;100.00;100507.03;4974746;28;20317;-72
2021/01/08 07:32:41;;;;;;;16.43;10.37;;;;;;;2.04;100.00;100505.16;4973042;28;20230;-72
2021/01/08 07:35:25;;;;;;;18.17;10.40;;;;;;;2.01;100.00;100523.53;4955686;28;20261;-72
2021/01/08 07:38:00;;;;;;;19.67;11.27;;;;;;;2.04;100.00;100529.28;4991775;28;20201;-72
2021/01/08 07:40:36;;;;;;;20.77;12.10;;;;;;;1.71;100.00;100527.13;4992767;28;20224;-72
2021/01/08 07:43:02;;;;;;;22.10;12.67;;;;;;;1.75;100.00;100539.03;4977558;28;20304;-72
2021/01/08 07:45:57;;;;;;;21.57;12.37;;;;;;;1.81;100.00;100538.13;4991434;28;20221;-72
2021/01/08 07:48:39;;;;;;;23.77;12.77;;;;;;;1.81;100.00;100541.63;4977319;28;20190;-72
2021/01/08 07:51:13;;;;;;;23.73;12.93;;;;;;;1.63;100.00;100551.44;4977431;28;20881;-72
2021/01/08 07:53:42;;;;;;;23.23;12.20;;;;;;;1.75;100.00;100547.06;4975785;28;20353;-72
2021/01/08 07:56:30;;;;;;;22.77;11.73;;;;;;;1.75;100.00;100547.06;5007788;28;20640;-73
2021/01/08 07:59:08;;;;;;;21.00;11.43;;;;;;;1.81;100.00;100551.53;4991787;28;20198;-72
2021/01/08 08:01:34;;;;;;;23.20;11.90;;;;;;;1.89;100.00;100557.44;4976912;28;20279;-73
2021/01/08 08:04:07;;;;;;;21.90;11.47;;;;;;;1.99;100.00;100553.19;4992427;28;20225;-72
2021/01/08 08:06:42;;;;;;;23.13;11.23;;;;;;;1.92;100.00;100568.53;4974996;28;20319;-72
2021/01/08 08:09:13;;;;;;;19.00;11.03;;;;;;;1.82;100.00;100561.22;4996240;28;20181;-72
2021/01/08 08:11:39;;;;;;;19.43;11.00;;;;;;;1.97;100.00;100566.00;4995515;28;20608;-72
2021/01/08 08:14:12;;;;;;;17.50;10.33;;;;;;;2.06;100.00;100564.69;4995756;28;20181;-72
2021/01/08 08:16:38;;;;;;;19.33;10.57;;;;;;;2.10;100.00;100573.91;5011278;28;20235;-72
2021/01/08 08:19:05;;;;;;;20.40;10.43;;;;;;;2.21;100.00;100567.84;4995780;28;20185;-72
2021/01/08 08:21:30;;;;;;;17.03;9.73;;;;;;;2.04;100.00;100577.47;5010351;28;20224;-72
2021/01/08 08:24:00;;;;;;;21.10;10.73;;;;;;;2.22;100.00;100585.56;5011167;28;20306;-72
2021/01/08 08:26:27;;;;;;;20.10;10.80;;;;;;;2.13;100.00;100581.50;4990509;28;20225;-72
2021/01/08 08:29:05;;;;;;;17.33;9.87;;;;;;;2.00;100.00;100589.66;4975569;28;20209;-73
2021/01/08 08:31:33;;;;;;;15.43;9.80;;;;;;;2.09;100.00;100580.31;4974862;28;20703;-72
2021/01/08 08:34:01;;;;;;;19.70;10.70;;;;;;;2.19;100.00;100587.84;4975621;28;20182;-73
2021/01/08 08:36:31;;;;;;;18.83;9.73;;;;;;;2.22;100.00;100585.56;4990746;28;20300;-71
2021/01/08 08:39:04;;;;;;;17.73;10.10;;;;;;;2.21;100.00;100578.53;4976045;28;20250;-71
2021/01/08 08:41:30;;;;;;;20.33;10.00;;;;;;;2.18;100.00;100595.06;4990522;28;20221;-71
2021/01/08 08:44:09;;;;;;;17.23;10.13;;;;;;;2.15;100.00;100595.50;4974893;28;20625;-71
2021/01/08 08:46:54;;;;;;;16.40;9.37;;;;;;;2.30;100.00;100593.28;4975519;28;20230;-71
2021/01/08 08:49:33;;;;;;;16.20;9.90;;;;;;;2.22;100.00;100601.63;4991583;28;20565;-71
2021/01/08 08:51:59;;;;;;;15.37;9.47;;;;;;;2.12;100.00;100601.28;4976970;28;20218;-72
2021/01/08 08:54:25;;;;;;;21.17;10.77;;;;;;;2.07;100.00;100609.19;4991847;28;20192;-72
2021/01/08 08:56:51;;;;;;;21.07;11.00;;;;;;;2.03;100.00;100607.13;4992001;28;20213;-72
2021/01/08 08:59:43;;;;;;;20.90;11.20;;;;;;;2.18;100.00;100611.16;5007565;28;20281;-74
2021/01/08 09:02:15;;;;;;;18.93;11.00;;;;;;;2.23;100.00;100618.50;4990746;28;20229;-72
2021/01/08 09:04:57;;;;;;;20.37;11.43;;;;;;;2.03;100.00;100621.38;4991553;28;20178;-71
2021/01/08 09:07:30;;;;;;;18.87;11.17;;;;;;;2.05;100.00;100616.63;4990385;28;20714;-72
2021/01/08 09:10:10;;;;;;;21.40;12.03;;;;;;;2.02;100.00;100619.72;4975669;28;20577;-71
2021/01/08 09:12:59;;;;;;;24.27;11.37;;;;;;;1.99;100.00;100622.81;4995311;28;20228;-71
2021/01/08 09:15:34;;;;;;;23.23;12.10;;;;;;;2.17;100.00;100630.91;5010041;28;20181;-72
2021/01/08 09:18:22;;;;;;;24.30;12.17;;;;;;;2.34;100.00;100629.31;4994181;28;20246;-72
2021/01/08 09:20:57;;;;;;;24.77;12.10;;;;;;;2.19;100.00;100631.53;5009596;28;20311;-72
2021/01/08 09:23:28;;;;;;;24.60;12.63;;;;;;;1.94;100.00;100630.72;4994093;28;20223;-72
2021/01/08 09:25:56;;;;;;;27.83;12.73;;;;;;;2.00;100.00;100634.38;4993615;28;20221;-72
2021/01/08 09:28:24;;;;;;;28.10;12.80;;;;;;;2.03;100.00;100634.75;5010358;28;20193;-72
2021/01/08 09:30:54;;;;;;;25.20;12.40;;;;;;;2.21;100.00;100629.44;4993422;28;20209;-72
2021/01/08 09:33:19;;;;;;;24.07;12.70;;;;;;;2.17;100.00;100636.28;4994214;28;20219;-72
2021/01/08 09:35:45;;;;;;;27.83;13.23;;;;;;;2.15;100.00;100642.91;5009135;28;20698;-72
2021/01/08 09:38:14;;;;;;;24.07;12.70;;;;;;;2.09;100.00;100639.22;5010105;28;20189;-72
2021/01/08 09:40:42;;;;;;;24.57;12.17;;;;;;;1.99;100.00;100638.88;4973907;28;20217;-73
2021/01/08 09:43:18;;;;;;;24.87;13.03;;;;;;;2.16;100.00;100634.66;4991560;28;20256;-72
2021/01/08 09:45:44;;;;;;;27.30;13.37;;;;;;;2.28;100.00;100632.06;5005468;28;20299;-72
2021/01/08 09:48:21;;;;;;;22.30;12.27;;;;;;;2.28;100.00;100638.25;5007050;28;20189;-72
2021/01/08 09:51:04;;;;;;;19.57;11.40;;;;;;;2.11;100.00;100642.50;5006136;28;20667;-73
2021/01/08 09:53:34;;;;;;;20.87;12.03;;;;;;;2.53;100.00;100647.91;4992031;28;20198;-73
2021/01/08 09:56:16;;;;;;;25.70;12.77;;;;;;;2.29;100.00;100642.56;4989292;28;20264;-72
2021/01/08 09:58:42;;;;;;;24.47;12.63;;;;;;;2.11;100.00;100653.22;4990552;28;20196;-72
2021/01/08 10:01:12;;;;;;;28.47;15.43;;;;;;;1.99;100.00;100654.94;5005781;28;20218;-72
2021/01/08 10:03:43;;;;;;;30.40;15.37;;;;;;;2.26;100.00;100640.31;5006016;28;20694;-73
2021/01/08 10:06:14;;;;;;;35.53;18.30;;;;;;;2.19;100.00;100650.25;5005315;28;20617;-72
2021/01/08 10:08:39;;;;;;;26.23;14.00;;;;;;;2.15;100.00;100641.03;5006830;28;20216;-72
2021/01/08 10:11:08;;;;;;;23.27;13.30;;;;;;;2.33;100.00;100646.44;4990012;28;20225;-71
2021/01/08 10:13:34;;;;;;;29.00;16.23;;;;;;;2.24;100.00;100652.31;5009788;28;20198;-71
2021/01/08 10:16:09;;;;;;;23.33;14.23;;;;;;;2.25;100.00;100644.03;5008205;28;20673;-72
2021/01/08 10:18:39;;;;;;;22.83;13.93;;;;;;;2.33;100.00;100646.44;4993169;28;20249;-72
2021/01/08 10:21:06;;;;;;;29.17;15.97;;;;;;;2.39;100.00;100645.56;5007763;28;20229;-71
2021/01/08 10:23:37;;;;;;;21.70;12.60;;;;;;;2.28;100.00;100641.72;4992531;28;20217;-72
2021/01/08 10:26:31;;;;;;;24.70;14.53;;;;;;;2.44;100.00;100637.69;4991593;28;20229;-71
2021/01/08 10:28:57;;;;;;;26.87;15.50;;;;;;;2.29;100.00;100634.53;5008351;28;20190;-71
2021/01/08 10:31:25;;;;;;;28.47;15.77;;;;;;;2.52;100.00;100643.56;4993983;28;20268;-72
2021/01/08 10:33:51;;;;;;;26.73;15.47;;;;;;;2.45;100.00;100636.63;4994226;28;20196;-71
2021/01/08 10:36:17;;;;;;;23.57;14.77;;;;;;;2.45;100.00;100639.31;4993551;28;20605;-71
2021/01/08 10:38:43;;;;;;;27.13;16.03;;;;;;;2.65;100.00;100651.47;4993851;28;20604;-72
2021/01/08 10:41:16;;;;;;;19.47;12.50;;;;;;;2.76;100.00;100643.50;5009109;28;20586;-72
2021/01/08 10:43:45;;;;;;;36.07;23.00;;;;;;;2.65;100.00;100656.84;5009679;28;20213;-72
2021/01/08 10:46:11;;;;;;;25.87;16.00;;;;;;;2.66;100.00;100647.78;5009144;28;20252;-72
2021/01/08 10:48:36;;;;;;;30.17;17.93;;;;;;;2.88;100.00;100647.13;5009598;28;20213;-72
2021/01/08 10:51:04;;;;;;;47.97;25.30;;;;;;;3.02;100.00;100643.22;5009505;28;20224;-72
2021/01/08 10:53:30;;;;;;;18.27;12.47;;;;;;;3.04;100.00;100643.84;4993834;28;20232;-71
2021/01/08 10:55:55;;;;;;;23.90;14.67;;;;;;;2.76;100.00;100646.19;4992568;28;20616;-71
2021/01/08 10:58:21;;;;;;;17.90;11.53;;;;;;;2.86;100.00;100654.56;5009925;28;20647;-72
2021/01/08 11:00:49;;;;;;;19.07;11.90;;;;;;;2.86;100.00;100657.25;4992196;28;20225;-72
2021/01/08 11:03:17;;;;;;;21.03;13.73;;;;;;;2.91;100.00;100646.69;4993790;28;20218;-71
2021/01/08 11:05:43;;;;;;;16.87;11.93;;;;;;;2.89;100.00;100654.09;4992932;28;20356;-71
2021/01/08 11:08:09;;;;;;;17.47;11.70;;;;;;;2.74;100.00;100653.66;5010133;28;20593;-71
2021/01/08 11:10:35;;;;;;;18.60;11.80;;;;;;;2.61;100.00;100655.66;5009269;28;20240;-71
2021/01/08 11:13:01;;;;;;;16.50;11.23;;;;;;;2.92;100.00;100648.31;4993996;28;20304;-71
2021/01/08 11:15:29;;;;;;;19.73;12.33;;;;;;;2.91;100.00;100646.69;4993317;28;20721;-71
2021/01/08 11:17:55;;;;;;;15.70;10.90;;;;;;;3.05;100.00;100654.31;4994155;28;20185;-72
2021/01/08 11:20:21;;;;;;;18.50;11.93;;;;;;;3.11;100.00;100647.25;4993469;28;20557;-72
2021/01/08 11:22:50;;;;;;;17.37;11.83;;;;;;;3.18;100.00;100650.69;4992952;28;20216;-72
2021/01/08 11:25:16;;;;;;;18.40;12.03;;;;;;;3.09;100.00;100649.34;5008252;28;20177;-71